createdAt,value
2023-04-15T00:02:02.758Z,7.98
2023-04-15T00:04:34.292Z,8.00
2023-04-15T00:07:05.722Z,8.03
2023-04-15T00:09:35.169Z,8.05
2023-04-15T00:12:06.688Z,8.04
2023-04-15T00:14:38.533Z,8.06
2023-04-15T00:17:09.842Z,8.07
2023-04-15T00:19:41.197Z,8.08
2023-04-15T00:22:12.292Z,8.09
2023-04-15T00:24:43.275Z,8.09
2023-04-15T00:27:12.753Z,8.09
2023-04-15T00:29:43.791Z,8.07
2023-04-15T00:32:15.468Z,8.07
2023-04-15T00:34:47.275Z,8.07
2023-04-15T00:37:18.388Z,8.06
2023-04-15T00:39:47.896Z,8.03
2023-04-15T00:42:19.814Z,7.96
2023-04-15T00:44:50.884Z,7.85
2023-04-15T00:47:22.844Z,7.72
2023-04-15T00:49:54.301Z,7.61
2023-04-15T00:52:25.195Z,7.50
2023-04-15T00:54:54.740Z,7.43
2023-04-15T00:57:25.733Z,7.33
2023-04-15T00:59:58.406Z,7.27
2023-04-15T01:02:29.568Z,7.21
2023-04-15T01:05:01.192Z,7.14
2023-04-15T01:07:33.466Z,7.10
2023-04-15T01:10:05.713Z,7.04
2023-04-15T01:12:37.918Z,7.00
2023-04-15T01:15:11.548Z,6.96
2023-04-15T01:17:43.720Z,6.93
2023-04-15T01:20:16.761Z,6.91
2023-04-15T01:22:48.132Z,6.88
2023-04-15T01:25:23.743Z,6.84
2023-04-15T01:27:55.070Z,6.81
2023-04-15T01:30:27.058Z,6.78
2023-04-15T01:32:58.241Z,6.74
2023-04-15T01:35:28.330Z,6.71
2023-04-15T01:38:04.991Z,6.67
2023-04-15T01:40:36.309Z,6.66
2023-04-15T01:43:07.541Z,6.64
2023-04-15T01:45:38.856Z,6.62
2023-04-15T01:48:09.941Z,6.59
2023-04-15T01:50:40.963Z,6.54
2023-04-15T01:53:12.081Z,6.51
2023-04-15T01:55:43.155Z,6.47
2023-04-15T01:58:14.355Z,6.44
2023-04-15T02:00:45.603Z,6.39
2023-04-15T02:03:15.083Z,6.33
2023-04-15T02:05:46.643Z,6.24
2023-04-15T02:08:18.765Z,6.19
2023-04-15T02:10:50.172Z,6.15
2023-04-15T02:13:21.543Z,6.13
2023-04-15T02:15:53.806Z,6.09
2023-04-15T02:18:25.271Z,6.05
2023-04-15T02:20:57.342Z,6.04
2023-04-15T02:23:28.638Z,6.02
2023-04-15T02:26:00.066Z,6.01
2023-04-15T02:28:31.573Z,5.99
2023-04-15T02:31:06.745Z,5.99
2023-04-15T02:33:38.339Z,6.00
2023-04-15T02:36:11.604Z,6.01
2023-04-15T02:38:43.385Z,5.99
2023-04-15T02:41:14.950Z,5.99
2023-04-15T02:43:46.085Z,5.98
2023-04-15T02:46:15.659Z,5.98
2023-04-15T02:48:46.619Z,5.93
2023-04-15T02:51:16.988Z,5.91
2023-04-15T02:53:48.541Z,5.87
2023-04-15T02:56:19.886Z,5.85
2023-04-15T02:58:51.670Z,5.82
2023-04-15T03:01:22.540Z,5.79
2023-04-15T03:03:55.275Z,5.74
2023-04-15T03:06:24.890Z,5.69
2023-04-15T03:08:57.008Z,5.64
2023-04-15T03:11:28.392Z,5.61
2023-04-15T03:13:59.535Z,5.58
2023-04-15T03:16:30.986Z,5.56
2023-04-15T03:19:02.018Z,5.56
2023-04-15T03:21:33.221Z,5.55
2023-04-15T03:24:04.299Z,5.54
2023-04-15T03:26:35.349Z,5.51
2023-04-15T03:29:06.662Z,5.48
2023-04-15T03:31:37.784Z,5.46
2023-04-15T03:34:07.563Z,5.44
2023-04-15T03:36:38.921Z,5.38
2023-04-15T03:39:09.939Z,5.34
2023-04-15T03:41:39.462Z,5.30
2023-04-15T03:44:10.584Z,5.25
2023-04-15T03:46:40.270Z,5.22
2023-04-15T03:49:11.310Z,5.18
2023-04-15T03:51:42.385Z,5.16
2023-04-15T03:54:15.399Z,5.13
2023-04-15T03:56:46.330Z,5.11
2023-04-15T03:59:17.426Z,5.11
2023-04-15T04:01:48.738Z,5.13
2023-04-15T04:04:20.095Z,5.13
2023-04-15T04:06:51.135Z,5.10
2023-04-15T04:09:20.693Z,5.09
2023-04-15T04:11:52.986Z,5.05
2023-04-15T04:14:29.480Z,5.04
2023-04-15T04:17:00.572Z,5.02
2023-04-15T04:19:31.768Z,4.98
2023-04-15T04:22:02.621Z,4.99
2023-04-15T04:24:32.482Z,4.99
2023-04-15T04:27:03.317Z,4.96
2023-04-15T04:29:34.453Z,4.92
2023-04-15T04:32:05.388Z,4.88
2023-04-15T04:34:36.794Z,4.82
2023-04-15T04:37:07.002Z,4.83
2023-04-15T04:39:38.414Z,4.79
2023-04-15T04:42:09.337Z,4.77
2023-04-15T04:44:40.523Z,4.78
2023-04-15T04:47:11.670Z,4.80
2023-04-15T04:49:41.229Z,4.80
2023-04-15T04:52:12.395Z,4.78
2023-04-15T04:54:43.842Z,4.76
2023-04-15T04:57:14.906Z,4.73
2023-04-15T04:59:44.414Z,4.73
2023-04-15T05:02:15.637Z,4.73
2023-04-15T05:04:46.900Z,4.76
2023-04-15T05:07:17.933Z,4.79
2023-04-15T05:09:48.941Z,4.79
2023-04-15T05:12:19.887Z,4.79
2023-04-15T05:14:50.898Z,4.77
2023-04-15T05:17:22.270Z,4.82
2023-04-15T05:19:55.167Z,4.83
2023-04-15T05:22:24.859Z,4.83
2023-04-15T05:24:56.379Z,4.80
2023-04-15T05:27:27.508Z,4.81
2023-04-15T05:29:57.337Z,4.83
2023-04-15T05:32:28.360Z,4.82
2023-04-15T05:34:59.422Z,4.83
2023-04-15T05:37:30.821Z,4.86
2023-04-15T05:40:00.314Z,4.87
2023-04-15T05:42:32.338Z,4.87
2023-04-15T05:45:05.550Z,4.86
2023-04-15T05:47:37.743Z,4.93
2023-04-15T05:50:10.152Z,4.98
2023-04-15T05:52:41.208Z,5.02
2023-04-15T05:55:12.808Z,5.06
2023-04-15T05:57:43.840Z,5.11
2023-04-15T06:00:14.523Z,5.16
2023-04-15T06:02:45.763Z,5.18
2023-04-15T06:05:16.976Z,5.20
2023-04-15T06:07:48.320Z,5.21
2023-04-15T06:10:22.077Z,5.19
2023-04-15T06:12:53.852Z,5.19
2023-04-15T06:15:24.939Z,5.24
2023-04-15T06:17:55.940Z,5.27
2023-04-15T06:20:27.976Z,5.28
2023-04-15T06:22:58.975Z,5.29
2023-04-15T06:25:30.016Z,5.32
2023-04-15T06:27:59.511Z,5.34
2023-04-15T06:30:30.673Z,5.32
2023-04-15T06:33:05.537Z,5.33
2023-04-15T06:35:36.710Z,5.34
2023-04-15T06:38:06.417Z,5.36
2023-04-15T06:40:37.902Z,5.37
2023-04-15T06:43:09.226Z,5.38
2023-04-15T06:45:40.487Z,5.42
2023-04-15T06:48:09.969Z,5.46
2023-04-15T06:50:41.440Z,5.47
2023-04-15T06:53:12.451Z,5.53
2023-04-15T06:55:43.483Z,5.56
2023-04-15T06:58:14.835Z,5.59
2023-04-15T07:00:44.926Z,5.63
2023-04-15T07:03:16.579Z,5.70
2023-04-15T07:05:47.770Z,5.80
2023-04-15T07:08:17.351Z,5.91
2023-04-15T07:10:48.861Z,5.96
2023-04-15T07:13:19.907Z,6.02
2023-04-15T07:15:51.132Z,6.15
2023-04-15T07:18:22.363Z,6.25
2023-04-15T07:20:54.807Z,6.28
2023-04-15T07:23:25.990Z,6.30
2023-04-15T07:25:57.554Z,6.32
2023-04-15T07:28:28.728Z,6.35
2023-04-15T07:30:58.258Z,6.38
2023-04-15T07:33:29.535Z,6.39
2023-04-15T07:36:00.894Z,6.42
2023-04-15T07:38:31.880Z,6.40
2023-04-15T07:41:03.006Z,6.35
2023-04-15T07:43:33.995Z,6.33
2023-04-15T07:46:03.657Z,6.34
2023-04-15T07:48:35.615Z,6.33
2023-04-15T07:51:08.760Z,6.36
2023-04-15T07:53:39.974Z,6.38
2023-04-15T07:56:09.839Z,6.40
2023-04-15T07:58:41.417Z,6.42
2023-04-15T08:01:12.807Z,6.49
2023-04-15T08:03:44.011Z,6.51
2023-04-15T08:06:15.339Z,6.55
2023-04-15T08:08:47.074Z,6.57
2023-04-15T08:11:18.109Z,6.60
2023-04-15T08:13:49.600Z,6.62
2023-04-15T08:16:26.106Z,6.64
2023-04-15T08:18:59.082Z,6.69
2023-04-15T08:21:31.080Z,6.71
2023-04-15T08:24:03.334Z,6.76
2023-04-15T08:26:34.416Z,6.84
2023-04-15T08:29:06.085Z,6.91
2023-04-15T08:31:39.672Z,7.00
2023-04-15T08:34:12.566Z,7.09
2023-04-15T08:36:43.881Z,7.18
2023-04-15T08:39:13.314Z,7.23
2023-04-15T08:41:49.377Z,7.26
2023-04-15T08:44:21.692Z,7.32
2023-04-15T08:46:54.511Z,7.45
2023-04-15T08:49:28.650Z,7.53
2023-04-15T08:52:01.594Z,7.66
2023-04-15T08:54:33.114Z,7.77
2023-04-15T08:57:04.452Z,7.79
2023-04-15T08:59:35.934Z,7.79
2023-04-15T09:02:06.958Z,7.86
2023-04-15T09:04:38.307Z,7.95
2023-04-15T09:07:09.588Z,8.04
2023-04-15T09:09:43.148Z,8.12
2023-04-15T09:12:14.490Z,8.14
2023-04-15T09:14:47.254Z,8.17
2023-04-15T09:17:21.794Z,8.23
2023-04-15T09:20:11.538Z,8.24
2023-04-15T09:22:44.413Z,8.22
2023-04-15T09:25:34.311Z,8.18
2023-04-15T09:28:06.294Z,8.18
2023-04-15T09:30:37.545Z,8.18
2023-04-15T09:33:10.969Z,8.21
2023-04-15T09:35:42.404Z,8.29
2023-04-15T09:38:13.397Z,8.37
2023-04-15T09:40:43.125Z,8.44
2023-04-15T09:43:14.256Z,8.48
2023-04-15T09:45:50.999Z,8.58
2023-04-15T09:48:23.932Z,8.63
2023-04-15T09:50:55.002Z,8.64
2023-04-15T09:53:27.562Z,8.66
2023-04-15T09:56:01.574Z,8.62
2023-04-15T09:58:35.154Z,8.62
2023-04-15T10:01:07.821Z,8.64
2023-04-15T10:03:39.791Z,8.64
2023-04-15T10:06:11.484Z,8.64
2023-04-15T10:08:42.980Z,8.67
2023-04-15T10:11:15.185Z,8.70
2023-04-15T10:13:48.680Z,8.81
2023-04-15T10:16:21.931Z,8.86
2023-04-15T10:18:57.535Z,8.90
2023-04-15T10:21:29.717Z,8.97
2023-04-15T10:24:02.426Z,9.09
2023-04-15T10:26:34.412Z,9.22
2023-04-15T10:29:06.012Z,9.29
2023-04-15T10:31:38.528Z,9.34
2023-04-15T10:34:10.860Z,9.36
2023-04-15T10:36:42.197Z,9.43
2023-04-15T10:39:41.100Z,9.42
2023-04-15T10:42:13.411Z,9.30
2023-04-15T10:44:47.282Z,9.24
2023-04-15T10:47:20.297Z,9.17
2023-04-15T10:49:53.772Z,9.18
2023-04-15T10:52:28.832Z,9.14
2023-04-15T10:55:14.321Z,9.11
2023-04-15T10:57:46.699Z,9.06
2023-04-15T11:00:20.755Z,9.04
2023-04-15T11:02:57.005Z,9.03
2023-04-15T11:05:57.180Z,9.11
2023-04-15T11:08:58.740Z,9.19
2023-04-15T11:12:04.824Z,9.12
2023-04-15T11:14:40.767Z,9.04
2023-04-15T11:17:11.887Z,9.08
2023-04-15T11:19:44.511Z,9.11
2023-04-15T11:22:15.595Z,9.15
2023-04-15T11:24:50.671Z,9.19
2023-04-15T11:27:26.254Z,9.22
2023-04-15T11:29:57.182Z,9.32
2023-04-15T11:32:28.294Z,9.41
2023-04-15T11:34:59.730Z,9.47
2023-04-15T11:37:35.476Z,9.48
2023-04-15T11:40:08.770Z,9.55
2023-04-15T11:42:49.048Z,9.69
2023-04-15T11:45:20.806Z,9.78
2023-04-15T11:47:53.649Z,9.84
2023-04-15T11:50:26.520Z,9.89
2023-04-15T11:52:59.375Z,9.81
2023-04-15T11:55:30.825Z,9.75
2023-04-15T11:58:16.407Z,9.64
2023-04-15T12:00:52.600Z,9.53
2023-04-15T12:03:28.482Z,9.46
2023-04-15T12:06:23.677Z,9.50
2023-04-15T12:09:02.841Z,9.56
2023-04-15T12:11:40.114Z,9.68
2023-04-15T12:14:11.038Z,9.76
2023-04-15T12:16:48.788Z,9.82
2023-04-15T12:19:25.957Z,9.86
2023-04-15T12:22:01.372Z,9.84
2023-04-15T12:24:36.220Z,9.85
2023-04-15T12:27:08.681Z,9.86
2023-04-15T12:29:41.001Z,9.88
2023-04-15T12:32:14.225Z,9.95
2023-04-15T12:34:50.643Z,10.06
2023-04-15T12:37:22.292Z,10.14
2023-04-15T12:39:55.075Z,10.23
2023-04-15T12:42:26.268Z,10.29
2023-04-15T12:44:57.541Z,10.34
2023-04-15T12:47:28.806Z,10.36
2023-04-15T12:50:00.133Z,10.36
2023-04-15T12:52:31.402Z,10.37
2023-04-15T12:55:02.447Z,10.40
2023-04-15T12:57:34.108Z,10.48
2023-04-15T13:00:08.246Z,10.59
2023-04-15T13:02:39.548Z,10.74
2023-04-15T13:05:11.671Z,10.86
2023-04-15T13:07:42.757Z,10.96
2023-04-15T13:10:14.320Z,10.98
2023-04-15T13:12:47.004Z,10.93
2023-04-15T13:15:20.750Z,10.85
2023-04-15T13:17:51.873Z,10.90
2023-04-15T13:20:22.855Z,11.03
2023-04-15T13:22:55.280Z,11.15
2023-04-15T13:25:26.214Z,11.24
2023-04-15T13:27:57.693Z,11.17
2023-04-15T13:30:28.967Z,11.08
2023-04-15T13:32:59.980Z,11.03
2023-04-15T13:35:31.540Z,11.07
2023-04-15T13:38:02.586Z,11.13
2023-04-15T13:40:33.529Z,11.19
2023-04-15T13:43:04.809Z,11.22
2023-04-15T13:45:35.927Z,11.21
2023-04-15T13:48:07.485Z,11.28
2023-04-15T13:50:41.163Z,11.32
2023-04-15T13:53:12.700Z,11.35
2023-04-15T13:55:43.856Z,11.28
2023-04-15T13:58:14.720Z,11.13
2023-04-15T14:00:45.979Z,11.04
2023-04-15T14:03:17.196Z,10.99
2023-04-15T14:05:53.562Z,10.95
2023-04-15T14:08:26.122Z,10.94
2023-04-15T14:10:57.806Z,10.99
2023-04-15T14:13:29.070Z,11.06
2023-04-15T14:16:01.001Z,11.27
2023-04-15T14:18:32.157Z,11.65
2023-04-15T14:21:03.820Z,11.88
2023-04-15T14:23:34.758Z,11.82
2023-04-15T14:26:06.385Z,11.72
2023-04-15T14:28:38.539Z,11.66
2023-04-15T14:31:09.790Z,11.71
2023-04-15T14:33:41.138Z,11.78
2023-04-15T14:36:12.528Z,12.09
2023-04-15T14:38:43.479Z,12.63
2023-04-15T14:41:14.399Z,12.80
2023-04-15T14:43:45.494Z,12.68
2023-04-15T14:46:16.770Z,12.52
2023-04-15T14:48:47.909Z,12.38
2023-04-15T14:51:19.068Z,12.26
2023-04-15T14:53:50.718Z,12.10
2023-04-15T14:56:22.094Z,11.96
2023-04-15T14:58:54.322Z,11.81
2023-04-15T15:01:25.414Z,11.68
2023-04-15T15:03:56.709Z,11.65
2023-04-15T15:06:28.921Z,11.68
2023-04-15T15:09:01.858Z,11.72
2023-04-15T15:11:33.973Z,11.80
2023-04-15T15:14:05.132Z,11.87
2023-04-15T15:16:36.805Z,12.18
2023-04-15T15:19:09.205Z,12.53
2023-04-15T15:21:40.508Z,12.81
2023-04-15T15:24:11.745Z,12.91
2023-04-15T15:26:42.922Z,13.04
2023-04-15T15:29:13.838Z,13.04
2023-04-15T15:31:45.030Z,13.12
2023-04-15T15:34:16.942Z,13.31
2023-04-15T15:36:47.976Z,13.47
2023-04-15T15:39:19.161Z,13.29
2023-04-15T15:41:50.197Z,13.14
2023-04-15T15:44:21.239Z,13.04
2023-04-15T15:46:52.728Z,12.82
2023-04-15T15:49:25.404Z,12.59
2023-04-15T15:51:56.915Z,12.38
2023-04-15T15:54:28.171Z,12.25
2023-04-15T15:56:59.106Z,12.13
2023-04-15T15:59:30.067Z,12.03
2023-04-15T16:02:02.626Z,11.92
2023-04-15T16:04:34.100Z,11.80
2023-04-15T16:07:05.563Z,11.73
2023-04-15T16:09:36.833Z,11.84
2023-04-15T16:12:07.979Z,11.82
2023-04-15T16:14:40.148Z,11.78
2023-04-15T16:17:11.751Z,11.73
2023-04-15T16:19:56.871Z,11.67
2023-04-15T16:22:31.989Z,11.98
2023-04-15T16:25:03.734Z,12.28
2023-04-15T16:27:40.830Z,12.50
2023-04-15T16:30:22.248Z,12.62
2023-04-15T16:32:54.328Z,12.82
2023-04-15T16:35:25.986Z,12.99
2023-04-15T16:37:57.846Z,13.04
2023-04-15T16:40:28.900Z,13.17
2023-04-15T16:43:00.126Z,13.39
2023-04-15T16:45:31.264Z,13.54
2023-04-15T16:48:02.298Z,13.44
2023-04-15T16:50:33.656Z,13.38
2023-04-15T16:53:04.750Z,13.36
2023-04-15T16:55:36.164Z,13.29
2023-04-15T16:58:09.961Z,13.11
2023-04-15T17:00:41.003Z,12.96
2023-04-15T17:03:12.829Z,12.82
2023-04-15T17:05:44.209Z,12.72
2023-04-15T17:08:15.149Z,12.76
2023-04-15T17:10:46.445Z,12.82
2023-04-15T17:13:17.553Z,12.78
2023-04-15T17:15:48.905Z,12.71
2023-04-15T17:18:19.853Z,12.56
2023-04-15T17:20:51.166Z,12.38
2023-04-15T17:23:22.474Z,12.02
2023-04-15T17:25:53.668Z,11.69
2023-04-15T17:28:24.799Z,11.36
2023-04-15T17:30:56.247Z,11.01
2023-04-15T17:33:59.271Z,10.70
2023-04-15T17:36:19.006Z,10.43
2023-04-15T17:38:50.276Z,10.22
2023-04-15T17:41:21.415Z,10.02
2023-04-15T17:43:54.100Z,9.82
2023-04-15T17:46:25.163Z,9.62
2023-04-15T17:48:56.162Z,9.42
2023-04-15T17:51:28.117Z,9.23
2023-04-15T17:53:59.333Z,9.03
2023-04-15T17:56:30.583Z,8.84
2023-04-15T17:59:02.639Z,8.66
2023-04-15T18:01:34.217Z,8.49
2023-04-15T18:04:03.868Z,8.32
2023-04-15T18:06:35.644Z,8.15
2023-04-15T18:09:08.807Z,8.02
2023-04-15T18:11:40.981Z,7.86
2023-04-15T18:14:13.945Z,7.69
2023-04-15T18:16:47.930Z,7.57
2023-04-15T18:19:19.118Z,7.43
2023-04-15T18:21:52.270Z,7.31
2023-04-15T18:24:23.589Z,7.20
2023-04-15T18:26:55.167Z,7.08
2023-04-15T18:29:26.493Z,6.96
2023-04-15T18:32:00.077Z,6.77
2023-04-15T18:34:31.958Z,6.57
2023-04-15T18:37:03.590Z,6.42
2023-04-15T18:39:34.848Z,6.33
2023-04-15T18:42:04.787Z,6.27
2023-04-15T18:44:35.911Z,6.17
2023-04-15T18:47:07.863Z,6.08
2023-04-15T18:49:39.144Z,5.99
2023-04-15T18:52:11.155Z,5.90
2023-04-15T18:54:42.713Z,5.82
2023-04-15T18:57:14.076Z,5.72
2023-04-15T18:59:51.605Z,5.68
2023-04-15T19:02:22.909Z,5.62
2023-04-15T19:04:54.919Z,5.56
2023-04-15T19:07:26.653Z,5.52
2023-04-15T19:09:57.919Z,5.42
2023-04-15T19:12:29.140Z,5.23
2023-04-15T19:15:00.158Z,5.07
2023-04-15T19:17:31.492Z,4.96
2023-04-15T19:20:02.493Z,4.87
2023-04-15T19:22:34.321Z,4.80
2023-04-15T19:25:06.571Z,4.75
2023-04-15T19:27:38.357Z,4.71
2023-04-15T19:30:11.698Z,4.67
2023-04-15T19:32:42.802Z,4.64
2023-04-15T19:35:13.774Z,4.61
2023-04-15T19:37:44.777Z,4.59
2023-04-15T19:40:14.361Z,4.55
2023-04-15T19:42:44.300Z,4.51
2023-04-15T19:45:15.790Z,4.44
2023-04-15T19:47:47.175Z,4.41
2023-04-15T19:50:19.389Z,4.38
2023-04-15T19:52:50.405Z,4.33
2023-04-15T19:55:21.915Z,4.30
2023-04-15T19:57:53.110Z,4.27
2023-04-15T20:00:24.547Z,4.22
2023-04-15T20:02:58.345Z,4.18
2023-04-15T20:05:29.635Z,4.15
2023-04-15T20:07:59.968Z,4.14
2023-04-15T20:10:32.312Z,4.11
2023-04-15T20:13:03.565Z,4.08
2023-04-15T20:15:34.944Z,4.06
2023-04-15T20:18:06.093Z,4.05
2023-04-15T20:20:41.587Z,4.04
2023-04-15T20:23:12.956Z,4.03
2023-04-15T20:25:46.440Z,4.00
2023-04-15T20:28:19.435Z,3.98
2023-04-15T20:30:50.314Z,3.93
2023-04-15T20:33:22.335Z,3.93
2023-04-15T20:35:56.673Z,3.91
2023-04-15T20:38:27.804Z,3.90
2023-04-15T20:40:59.105Z,3.88
2023-04-15T20:43:30.222Z,3.87
2023-04-15T20:46:06.997Z,3.83
2023-04-15T20:48:44.976Z,3.79
2023-04-15T20:51:16.114Z,3.80
2023-04-15T20:53:47.225Z,3.77
2023-04-15T20:56:18.320Z,3.75
2023-04-15T20:58:49.192Z,3.69
2023-04-15T21:01:20.256Z,3.57
2023-04-15T21:03:51.614Z,3.49
2023-04-15T21:06:22.709Z,3.47
2023-04-15T21:08:53.832Z,3.48
2023-04-15T21:11:43.139Z,3.51
2023-04-15T21:14:16.367Z,3.52
2023-04-15T21:16:48.082Z,3.53
2023-04-15T21:19:19.295Z,3.57
2023-04-15T21:21:50.350Z,3.58
2023-04-15T21:24:21.515Z,3.59
2023-04-15T21:26:52.523Z,3.58
2023-04-15T21:29:24.073Z,3.57
2023-04-15T21:31:55.288Z,3.58
2023-04-15T21:34:26.693Z,3.58
2023-04-15T21:37:00.605Z,3.56
2023-04-15T21:39:31.932Z,3.56
2023-04-15T21:42:03.571Z,3.55
2023-04-15T21:44:34.700Z,3.54
2023-04-15T21:47:05.687Z,3.52
2023-04-15T21:49:36.772Z,3.51
2023-04-15T21:52:07.948Z,3.51
2023-04-15T21:54:39.305Z,3.50
2023-04-15T21:57:10.266Z,3.46
2023-04-15T21:59:41.424Z,3.37
2023-04-15T22:02:12.494Z,3.31
2023-04-15T22:04:42.166Z,3.26
2023-04-15T22:07:13.267Z,3.21
2023-04-15T22:09:44.400Z,3.19
2023-04-15T22:12:15.587Z,3.19
2023-04-15T22:14:47.844Z,3.19
2023-04-15T22:17:19.218Z,3.17
2023-04-15T22:19:49.167Z,3.15
2023-04-15T22:22:20.422Z,3.11
2023-04-15T22:24:56.297Z,3.08
2023-04-15T22:27:27.394Z,3.05
2023-04-15T22:29:58.711Z,3.03
2023-04-15T22:32:28.144Z,3.03
2023-04-15T22:34:59.188Z,3.00
2023-04-15T22:37:30.952Z,3.00
2023-04-15T22:40:03.302Z,2.98
2023-04-15T22:42:34.445Z,2.93
2023-04-15T22:45:06.198Z,2.84
2023-04-15T22:47:37.364Z,2.78
2023-04-15T22:50:10.414Z,2.75
2023-04-15T22:52:41.342Z,2.75
2023-04-15T22:55:13.026Z,2.75
2023-04-15T22:57:44.728Z,2.74
2023-04-15T23:00:16.402Z,2.72
2023-04-15T23:02:47.585Z,2.70
2023-04-15T23:05:18.835Z,2.69
2023-04-15T23:07:49.975Z,2.67
2023-04-15T23:10:21.194Z,2.68
2023-04-15T23:12:50.920Z,2.70
2023-04-15T23:15:22.219Z,2.72
2023-04-15T23:17:53.597Z,2.75
2023-04-15T23:20:23.541Z,2.80
2023-04-15T23:22:54.702Z,2.83
2023-04-15T23:25:25.789Z,2.86
2023-04-15T23:27:56.859Z,2.88
2023-04-15T23:30:28.234Z,2.89
2023-04-15T23:32:59.898Z,2.89
2023-04-15T23:35:31.314Z,2.90
2023-04-15T23:38:02.497Z,2.89
2023-04-15T23:40:34.960Z,2.92
2023-04-15T23:43:06.202Z,2.94
2023-04-15T23:45:37.193Z,2.97
2023-04-15T23:48:09.233Z,3.00
2023-04-15T23:50:40.483Z,3.03
2023-04-15T23:53:10.064Z,3.05
2023-04-15T23:55:41.338Z,3.04
2023-04-15T23:58:12.391Z,3.06
